Time;durP1;ratioP1;P1;durP2;ratioP2;P2;SDS_P1;SDS_P2;PMS_P1;PMS_P2;Temp;Humidity;BMP_temperature;BMP_pressure;BME280_temperature;BME280_humidity;BME280_pressure;Samples;Min_cycle;Max_cycle;Signal;HPM_P1;HPM_P2
2022/09/16 00:00:26;;;;;;;2.95;1.33;;;;;;;11.37;62.44;100146.63;5014802;28;20050;-51
2022/09/16 00:02:53;;;;;;;2.63;1.15;;;;;;;11.36;62.68;100144.03;5014391;28;20064;-51
2022/09/16 00:05:20;;;;;;;3.13;0.65;;;;;;;11.34;62.30;100140.63;5015703;28;20433;-51
2022/09/16 00:07:47;;;;;;;1.52;0.60;;;;;;;11.32;62.75;100149.25;5014143;28;20583;-50
2022/09/16 00:10:14;;;;;;;2.00;1.40;;;;;;;11.30;62.59;100145.81;5015954;28;20988;-48
2022/09/16 00:12:40;;;;;;;4.00;1.77;;;;;;;11.27;62.52;100144.94;5020645;28;20042;-51
2022/09/16 00:15:08;;;;;;;2.03;1.48;;;;;;;11.26;63.79;100149.28;5019420;28;20048;-51
2022/09/16 00:17:36;;;;;;;2.47;1.60;;;;;;;11.23;62.88;100154.47;5014840;28;20077;-47
2022/09/16 00:20:04;;;;;;;1.50;1.35;;;;;;;11.21;63.78;100151.00;5015278;28;20045;-50
2022/09/16 00:22:32;;;;;;;3.22;0.50;;;;;;;11.18;62.89;100146.72;5020651;28;20489;-48
2022/09/16 00:24:58;;;;;;;2.63;1.63;;;;;;;11.16;63.09;100142.41;5001724;28;20049;-46
2022/09/16 00:27:25;;;;;;;5.45;1.33;;;;;;;11.13;63.00;100142.41;5004419;28;20137;-51
2022/09/16 00:29:52;;;;;;;3.10;2.03;;;;;;;11.12;63.70;100143.28;5002345;28;20042;-51
2022/09/16 00:32:19;;;;;;;2.80;1.67;;;;;;;11.11;63.21;100149.34;5003131;28;20108;-49
2022/09/16 00:34:46;;;;;;;2.13;0.60;;;;;;;11.08;63.67;100144.16;4999255;28;20413;-46
2022/09/16 00:37:12;;;;;;;3.15;1.25;;;;;;;11.04;63.66;100141.56;5002810;28;20078;-46
2022/09/16 00:39:39;;;;;;;3.40;1.63;;;;;;;11.02;62.97;100147.63;5002499;28;20133;-46
2022/09/16 00:42:05;;;;;;;6.18;1.63;;;;;;;10.98;63.93;100144.16;4999505;28;20125;-49
2022/09/16 00:47:39;;;;;;;9.90;1.33;;;;;;;10.91;63.40;100158.03;5038579;27;20396;-48
2022/09/16 00:50:12;;;;;;;6.72;0.52;;;;;;;10.91;64.14;100163.22;5011062;28;20525;-46
2022/09/16 00:52:40;;;;;;;1.83;0.40;;;;;;;10.89;63.62;100160.63;5005580;28;20081;-49
2022/09/16 00:55:10;;;;;;;5.07;0.90;;;;;;;10.89;64.25;100164.94;5002475;28;20038;-47
2022/09/16 00:57:40;;;;;;;2.40;0.90;;;;;;;10.89;63.51;100162.34;5008935;28;21672;-50
2022/09/16 01:00:10;;;;;;;2.00;0.82;;;;;;;10.89;64.66;100159.75;5011918;28;20046;-47
2022/09/16 01:02:37;;;;;;;2.47;0.70;;;;;;;10.88;63.62;100165.81;5002230;28;20644;-46
2022/09/16 01:05:10;;;;;;;3.83;1.05;;;;;;;10.89;64.29;100170.13;5005683;28;20141;-49
2022/09/16 01:07:53;;;;;;;3.53;1.17;;;;;;;10.82;64.15;100173.59;5015712;28;20136;-48
2022/09/16 01:10:23;;;;;;;1.20;0.75;;;;;;;10.85;63.88;100168.41;5007170;28;20120;-49
2022/09/16 01:12:54;;;;;;;2.03;0.70;;;;;;;10.84;64.58;100166.69;5014237;28;20120;-47
2022/09/16 01:15:25;;;;;;;3.90;0.75;;;;;;;10.84;65.26;100164.09;5014567;28;20058;-45
2022/09/16 01:39:46;;;;;;;2.70;0.80;;;;;;;10.75;64.90;100163.25;5069442;27;20887;-50
2022/09/16 01:42:37;;;;;;;5.18;0.73;;;;;;;10.73;65.92;100164.97;5051537;28;20037;-52
2022/09/16 01:45:16;;;;;;;1.40;0.93;;;;;;;10.71;65.66;100166.69;5062478;28;20051;-51
2022/09/16 02:01:09;;;;;;;2.75;1.20;;;;;;;10.57;66.63;100178.81;5020493;27;20410;-50
2022/09/16 02:03:40;;;;;;;3.35;0.55;;;;;;;10.56;66.73;100180.53;5018994;28;20128;-49
2022/09/16 02:06:10;;;;;;;2.90;1.13;;;;;;;10.57;66.15;100178.81;5020871;28;20482;-51
2022/09/16 02:11:17;;;;;;;2.88;1.88;;;;;;;10.53;66.60;100178.81;5069246;27;20739;-50
2022/09/16 02:13:51;;;;;;;2.88;2.38;;;;;;;10.52;66.78;100155.50;5015617;28;20133;-50
2022/09/16 02:16:26;;;;;;;3.15;2.35;;;;;;;10.53;67.33;100172.75;5037624;28;20075;-48
2022/09/16 02:19:01;;;;;;;3.38;2.05;;;;;;;10.51;66.87;100162.38;5018471;28;20140;-52
2022/09/16 02:21:31;;;;;;;4.22;2.45;;;;;;;10.52;67.19;100161.53;5018022;28;20052;-51
2022/09/16 02:24:03;;;;;;;3.10;2.33;;;;;;;10.56;67.34;100166.69;5016897;28;20054;-52
2022/09/16 02:26:38;;;;;;;7.00;2.65;;;;;;;10.56;67.48;100171.88;5046902;28;20045;-48
2022/09/16 02:29:13;;;;;;;4.18;0.70;;;;;;;10.59;67.63;100167.56;5016650;28;20790;-51
2022/09/16 02:31:43;;;;;;;4.82;0.95;;;;;;;10.65;67.63;100159.81;5016545;28;20400;-51
2022/09/16 02:34:24;;;;;;;2.63;1.77;;;;;;;10.67;67.26;100159.78;5021178;28;20141;-50
2022/09/16 02:36:55;;;;;;;8.05;2.35;;;;;;;10.73;67.87;100157.19;5026950;28;20560;-51
2022/09/16 02:39:29;;;;;;;3.53;1.88;;;;;;;10.77;67.31;100155.44;5030001;28;20121;-49
2022/09/16 02:41:56;;;;;;;2.67;0.77;;;;;;;10.82;67.01;100158.03;5032943;28;20961;-51
2022/09/16 02:44:24;;;;;;;2.20;1.73;;;;;;;10.85;66.88;100152.84;5029812;28;20065;-51
2022/09/16 02:49:43;;;;;;;3.38;0.82;;;;;;;10.86;67.68;100150.25;5019991;28;20420;-49
2022/09/16 02:57:31;;;;;;;1.48;0.55;;;;;;;10.94;67.29;100152.81;5016597;28;20414;-50
2022/09/16 02:59:57;;;;;;;5.65;1.15;;;;;;;10.95;67.12;100158.88;4985164;28;20149;-48
2022/09/16 03:02:24;;;;;;;3.60;0.75;;;;;;;10.97;67.69;100155.41;4992570;28;20138;-52
2022/09/16 03:04:51;;;;;;;6.03;1.00;;;;;;;10.99;67.95;100160.59;4989016;28;20050;-52
2022/09/16 03:07:17;;;;;;;4.25;0.95;;;;;;;11.00;68.14;100160.59;4985268;28;20150;-50
2022/09/16 03:09:47;;;;;;;3.28;0.93;;;;;;;11.01;67.76;100159.72;4982042;28;20141;-48
2022/09/16 03:12:54;;;;;;;3.28;1.17;;;;;;;10.96;67.85;100166.66;4986499;28;20488;-51
2022/09/16 03:26:34;;;;;;;7.38;1.25;;;;;;;11.02;67.95;100166.63;5052913;27;20390;-49
2022/09/16 03:34:44;;;;;;;2.78;2.15;;;;;;;10.78;68.75;100165.81;5122206;27;20398;-49
2022/09/16 03:37:16;;;;;;;6.78;2.42;;;;;;;10.77;68.28;100169.28;5068411;28;20053;-48
2022/09/16 03:39:51;;;;;;;2.10;1.10;;;;;;;10.75;68.06;100163.25;5068776;28;20444;-50
2022/09/16 03:42:19;;;;;;;2.97;1.08;;;;;;;10.72;68.64;100173.63;5087742;28;20466;-49
2022/09/16 03:44:46;;;;;;;2.88;1.90;;;;;;;10.67;68.61;100172.72;5073730;28;20135;-50
2022/09/16 03:47:13;;;;;;;4.13;2.10;;;;;;;10.66;68.36;100171.03;5066168;28;20132;-50
2022/09/16 03:49:39;;;;;;;6.78;2.47;;;;;;;10.63;68.32;100171.00;5065516;28;20135;-49
2022/09/16 03:52:07;;;;;;;3.03;0.60;;;;;;;10.59;68.32;100172.75;5063019;28;20458;-45
2022/09/16 03:54:35;;;;;;;4.65;1.50;;;;;;;10.58;68.73;100175.34;5066014;28;20040;-46
2022/09/16 03:57:02;;;;;;;3.42;1.80;;;;;;;10.57;68.48;100171.03;5067373;28;20055;-47
2022/09/16 03:59:28;;;;;;;3.00;1.75;;;;;;;10.53;68.33;100168.44;5071021;28;20071;-49
2022/09/16 04:01:55;;;;;;;3.97;2.22;;;;;;;10.51;69.25;100170.16;5064158;28;20049;-47
2022/09/16 04:04:22;;;;;;;2.45;1.95;;;;;;;10.51;69.01;100175.34;5066140;28;20036;-48
2022/09/16 04:06:48;;;;;;;6.68;2.17;;;;;;;10.51;68.22;100175.34;5064256;28;20059;-48
2022/09/16 04:09:15;;;;;;;3.65;2.17;;;;;;;10.53;69.37;100168.44;5068061;28;20489;-46
2022/09/16 04:11:42;;;;;;;2.20;0.82;;;;;;;10.57;68.84;100178.81;5063961;28;20442;-49
2022/09/16 04:14:09;;;;;;;7.47;2.05;;;;;;;10.59;69.04;100171.88;5064285;28;20047;-46
2022/09/16 04:16:36;;;;;;;6.85;2.15;;;;;;;10.62;69.46;100171.88;5072386;28;20052;-48
2022/09/16 04:19:03;;;;;;;4.75;2.17;;;;;;;10.65;69.32;100177.06;5062613;28;20059;-52
2022/09/16 04:21:30;;;;;;;6.45;2.10;;;;;;;10.66;69.20;100173.59;5067890;28;20044;-51
2022/09/16 04:23:56;;;;;;;4.97;2.05;;;;;;;10.68;68.68;100187.44;5068105;28;20152;-50
2022/09/16 04:26:23;;;;;;;4.43;2.53;;;;;;;10.67;69.00;100190.88;5068441;28;20522;-51
2022/09/16 04:28:53;;;;;;;7.30;2.72;;;;;;;10.69;69.19;100178.78;5073522;28;20048;-52
2022/09/16 04:31:20;;;;;;;3.88;2.10;;;;;;;10.71;69.73;100187.41;5068748;28;20045;-48
2022/09/16 04:33:47;;;;;;;6.22;2.47;;;;;;;10.72;70.02;100189.16;5059815;28;20165;-49
2022/09/16 04:36:16;;;;;;;4.72;2.65;;;;;;;10.73;69.03;100190.88;5062248;28;20079;-48
2022/09/16 04:38:44;;;;;;;5.07;2.38;;;;;;;10.74;69.37;100192.59;5070174;28;20103;-51
2022/09/16 04:41:14;;;;;;;3.80;2.10;;;;;;;10.75;68.90;100188.28;5057452;28;20072;-49
2022/09/16 04:43:41;;;;;;;4.13;2.08;;;;;;;10.75;69.42;100196.06;5065470;28;21008;-49
2022/09/16 04:46:08;;;;;;;4.82;2.00;;;;;;;10.75;69.18;100191.75;5052146;28;20449;-49
2022/09/16 04:48:35;;;;;;;4.10;2.55;;;;;;;10.74;69.26;100207.28;5034531;28;20131;-48
2022/09/16 04:51:07;;;;;;;3.95;1.83;;;;;;;10.76;69.28;100200.38;5051655;28;20045;-51
2022/09/16 04:53:35;;;;;;;3.60;2.88;;;;;;;10.76;69.72;100200.38;5054133;28;20044;-51
2022/09/16 04:58:39;;;;;;;3.08;1.27;;;;;;;10.77;69.79;100186.53;5059952;28;20404;-48
2022/09/16 05:01:11;;;;;;;5.75;1.30;;;;;;;10.82;69.89;100183.94;5001767;28;20076;-49
2022/09/16 05:03:39;;;;;;;3.97;1.50;;;;;;;10.84;69.81;100192.59;4999189;28;20096;-48
2022/09/16 05:06:10;;;;;;;4.95;1.40;;;;;;;10.87;69.64;100195.16;5004169;28;20100;-47
2022/09/16 05:08:37;;;;;;;8.02;1.50;;;;;;;10.86;69.01;100191.72;5004307;28;20052;-50
2022/09/16 05:11:06;;;;;;;2.75;1.15;;;;;;;10.90;69.15;100200.34;4996048;28;20097;-47
2022/09/16 05:13:33;;;;;;;3.03;1.55;;;;;;;10.91;69.43;100204.69;5004426;28;20050;-49
2022/09/16 05:16:03;;;;;;;5.60;2.08;;;;;;;10.91;68.57;100199.50;5001143;28;20053;-48
2022/09/16 05:18:29;;;;;;;3.20;1.40;;;;;;;10.92;68.61;100201.22;4997382;28;20062;-48
2022/09/16 05:20:58;;;;;;;6.63;1.20;;;;;;;10.94;69.46;100212.44;5001815;28;20503;-45
2022/09/16 05:23:25;;;;;;;2.67;1.45;;;;;;;10.94;69.67;100204.66;4996558;28;20054;-51
2022/09/16 05:25:53;;;;;;;5.65;1.20;;;;;;;10.95;68.97;100216.78;5000052;28;20045;-49
2022/09/16 05:28:20;;;;;;;3.42;1.85;;;;;;;10.94;69.17;100222.78;4986034;28;20042;-48
2022/09/16 05:30:47;;;;;;;3.45;1.48;;;;;;;10.94;69.09;100217.59;4998680;28;20164;-46
2022/09/16 05:33:13;;;;;;;2.85;1.30;;;;;;;10.93;69.22;100218.47;4999569;28;20116;-48
2022/09/16 05:35:40;;;;;;;4.07;1.38;;;;;;;10.91;69.22;100220.22;4998194;28;20137;-50
2022/09/16 05:38:07;;;;;;;5.78;2.00;;;;;;;10.93;69.61;100223.66;4999864;28;20085;-52
2022/09/16 05:40:33;;;;;;;7.50;1.50;;;;;;;10.91;69.11;100223.66;5002575;28;20046;-49
2022/09/16 05:43:00;;;;;;;3.47;1.63;;;;;;;10.91;70.19;100221.06;4994955;28;20557;-46
2022/09/16 05:45:27;;;;;;;4.50;1.80;;;;;;;10.90;69.83;100223.66;5002839;28;20060;-51
2022/09/16 05:47:57;;;;;;;5.13;1.80;;;;;;;10.91;69.07;100225.41;5001238;28;20042;-49
2022/09/16 05:50:24;;;;;;;5.13;1.95;;;;;;;10.90;69.11;100228.84;4998200;28;20463;-49
2022/09/16 05:52:50;;;;;;;4.63;2.38;;;;;;;10.90;69.24;100239.22;5000969;28;20137;-48
2022/09/16 05:55:17;;;;;;;10.20;2.47;;;;;;;10.91;69.91;100243.56;4997648;28;20053;-48
2022/09/16 05:57:44;;;;;;;5.45;2.00;;;;;;;10.90;69.61;100240.09;5000560;28;20046;-52
2022/09/16 06:00:11;;;;;;;7.53;2.63;;;;;;;10.91;70.36;100251.34;4996591;28;20084;-48
2022/09/16 06:02:38;;;;;;;4.05;2.35;;;;;;;10.89;69.53;100242.69;4996838;28;20042;-50
2022/09/16 06:05:04;;;;;;;6.22;2.00;;;;;;;10.91;69.38;100240.97;4996810;28;20050;-48
2022/09/16 06:07:31;;;;;;;7.15;1.80;;;;;;;10.92;69.51;100247.88;5001846;28;20093;-49
2022/09/16 06:09:57;;;;;;;8.05;1.67;;;;;;;10.93;69.57;100245.28;4983498;28;20080;-51
2022/09/16 06:12:24;;;;;;;4.50;1.55;;;;;;;10.95;69.73;100242.69;4987123;28;20052;-49
2022/09/16 06:14:51;;;;;;;4.18;1.60;;;;;;;10.98;69.26;100250.44;4986175;28;20489;-48
2022/09/16 06:17:17;;;;;;;6.07;1.55;;;;;;;10.99;69.31;100252.19;4985676;28;20050;-50
2022/09/16 06:19:44;;;;;;;3.65;1.65;;;;;;;11.01;69.06;100253.03;4989823;28;20046;-52
2022/09/16 06:22:10;;;;;;;8.00;1.40;;;;;;;11.02;69.46;100254.75;4986775;28;20061;-51
2022/09/16 06:24:37;;;;;;;4.18;1.60;;;;;;;11.00;69.76;100253.91;4981012;28;20172;-54
2022/09/16 06:27:03;;;;;;;3.42;1.25;;;;;;;11.04;68.93;100258.22;4983619;28;20181;-53
2022/09/16 06:29:30;;;;;;;3.08;1.45;;;;;;;11.03;69.95;100256.50;4987194;28;20141;-50
2022/09/16 06:31:57;;;;;;;4.18;1.35;;;;;;;11.06;69.25;100268.59;4985366;28;20050;-52
2022/09/16 06:34:25;;;;;;;3.45;1.17;;;;;;;11.09;68.92;100267.72;4984507;28;20661;-52
2022/09/16 06:36:52;;;;;;;1.80;0.88;;;;;;;11.11;68.66;100258.22;4980543;28;20050;-51
2022/09/16 06:39:21;;;;;;;5.03;1.75;;;;;;;11.14;68.83;100273.75;4984655;28;20073;-49
2022/09/16 06:41:48;;;;;;;4.65;1.27;;;;;;;11.17;68.73;100264.25;4981569;28;20417;-51
2022/09/16 06:44:14;;;;;;;4.75;1.27;;;;;;;11.24;69.11;100274.59;4979430;28;20053;-50
2022/09/16 06:46:41;;;;;;;3.72;1.20;;;;;;;11.27;68.68;100280.66;4981454;28;20137;-52
2022/09/16 06:49:09;;;;;;;3.67;1.20;;;;;;;11.33;69.11;100279.78;4976472;28;20050;-54
2022/09/16 06:51:36;;;;;;;3.25;0.57;;;;;;;11.40;67.82;100280.63;4983678;28;20050;-52
2022/09/16 06:54:05;;;;;;;4.07;1.15;;;;;;;11.46;67.78;100280.63;4979863;28;20558;-47
2022/09/16 06:56:34;;;;;;;4.88;0.95;;;;;;;11.53;68.88;100292.69;4981191;28;20078;-52
2022/09/16 06:59:02;;;;;;;2.13;0.88;;;;;;;11.60;68.81;100296.13;4982082;28;20039;-52
2022/09/16 07:01:30;;;;;;;1.17;0.80;;;;;;;11.66;68.26;100288.31;4976654;28;20064;-51
2022/09/16 07:04:00;;;;;;;1.13;0.73;;;;;;;11.75;67.78;100297.78;4979400;28;20082;-52
2022/09/16 07:06:28;;;;;;;2.80;1.02;;;;;;;11.80;66.93;100290.88;4977399;28;20512;-50
2022/09/16 07:09:15;;;;;;;1.50;0.65;;;;;;;11.87;67.73;100301.22;4977546;28;20050;-49
2022/09/16 07:11:42;;;;;;;2.80;0.57;;;;;;;11.89;66.54;100304.69;4979979;28;20089;-48
2022/09/16 07:14:09;;;;;;;1.55;0.73;;;;;;;11.93;66.07;100301.19;4980696;28;20046;-46
2022/09/16 07:16:35;;;;;;;3.15;0.98;;;;;;;12.05;67.19;100301.16;4982445;28;20074;-47
2022/09/16 07:19:02;;;;;;;2.60;0.70;;;;;;;12.23;65.96;100308.88;4977428;28;20149;-48
2022/09/16 07:21:29;;;;;;;1.70;0.73;;;;;;;12.29;66.02;100303.66;4981047;28;20438;-48
2022/09/16 07:23:58;;;;;;;1.67;0.80;;;;;;;12.94;65.29;100308.38;4979535;28;20137;-48
2022/09/16 07:26:28;;;;;;;1.30;0.70;;;;;;;13.97;62.80;100304.75;4980319;28;20062;-50
2022/09/16 07:28:58;;;;;;;2.88;0.60;;;;;;;15.04;60.88;100309.31;4983719;28;20113;-52
2022/09/16 07:31:27;;;;;;;1.13;0.63;;;;;;;15.94;58.88;100305.00;4979913;28;20057;-50
2022/09/16 07:33:56;;;;;;;2.63;0.55;;;;;;;16.76;57.04;100311.06;4984444;28;20480;-47
2022/09/16 07:36:32;;;;;;;2.42;0.68;;;;;;;17.44;55.46;100321.59;4985455;28;20141;-52
2022/09/16 07:38:59;;;;;;;1.13;0.45;;;;;;;17.95;53.22;100329.78;4987895;28;20078;-51
2022/09/16 07:41:28;;;;;;;0.70;0.30;;;;;;;18.20;53.02;100322.06;4985998;28;20129;-47
2022/09/16 07:43:58;;;;;;;3.97;1.00;;;;;;;18.61;52.48;100320.84;4988608;28;20517;-46
2022/09/16 07:46:27;;;;;;;1.40;0.30;;;;;;;19.13;50.68;100317.44;4986472;28;20057;-48
2022/09/16 07:48:54;;;;;;;0.73;0.30;;;;;;;19.44;48.83;100326.88;4987647;28;20131;-48
2022/09/16 07:51:23;;;;;;;0.85;0.30;;;;;;;19.63;48.02;100331.47;4981187;28;20054;-53
2022/09/16 07:53:57;;;;;;;0.40;0.22;;;;;;;19.68;47.71;100328.66;4978816;28;20133;-49
2022/09/16 07:56:27;;;;;;;1.25;0.55;;;;;;;19.70;46.82;100332.97;5000584;28;20149;-49
2022/09/16 07:58:55;;;;;;;0.73;0.45;;;;;;;19.66;45.96;100334.00;4979642;28;20073;-48
2022/09/16 08:01:23;;;;;;;0.68;0.47;;;;;;;19.60;45.54;100345.56;4979667;28;20124;-52
2022/09/16 08:03:50;;;;;;;0.50;0.30;;;;;;;19.26;45.52;100337.09;4978958;28;20054;-50
2022/09/16 08:06:19;;;;;;;1.02;0.38;;;;;;;18.65;45.50;100338.22;4977879;28;20061;-51
2022/09/16 08:08:47;;;;;;;;;;;;;;;17.86;46.38;100341.38;4983172;28;20161;-50
2022/09/16 08:11:14;;;;;;;1.20;1.10;;;;;;;17.76;47.50;100347.81;4974983;28;20385;-53
2022/09/16 08:13:42;;;;;;;2.67;0.52;;;;;;;17.89;47.20;100337.81;4980318;28;20078;-50
2022/09/16 08:16:12;;;;;;;0.95;0.50;;;;;;;18.28;47.06;100349.84;4983878;28;20049;-50
2022/09/16 08:18:38;;;;;;;0.90;0.30;;;;;;;18.77;46.16;100363.19;4980240;28;20050;-54
2022/09/16 08:21:09;;;;;;;2.55;0.40;;;;;;;19.24;45.68;100362.56;4987021;28;20546;-50
2022/09/16 08:23:36;;;;;;;0.50;0.22;;;;;;;19.64;44.52;100364.69;4985797;28;20129;-49
2022/09/16 08:26:04;;;;;;;0.70;0.47;;;;;;;19.95;43.81;100358.31;4978484;28;20065;-51
2022/09/16 08:28:31;;;;;;;0.93;0.68;;;;;;;20.17;42.67;100352.31;4983121;28;20078;-49
2022/09/16 08:31:17;;;;;;;0.93;0.20;;;;;;;20.37;42.15;100369.09;4978665;28;20058;-53
2022/09/16 08:33:45;;;;;;;0.73;0.63;;;;;;;20.55;41.37;100363.13;4975657;28;20486;-55
2022/09/16 08:38:50;;;;;;;1.48;0.60;;;;;;;20.91;40.41;100368.75;5096944;27;20387;-48
2022/09/16 08:46:39;;;;;;;1.75;0.80;;;;;;;21.27;39.70;100378.66;5016574;27;20409;-52
2022/09/16 08:49:32;;;;;;;0.65;0.32;;;;;;;21.50;39.44;100382.09;5019179;28;20065;-54
2022/09/16 08:52:22;;;;;;;1.13;0.75;;;;;;;21.71;40.20;100389.97;5025011;28;20042;-50
2022/09/16 08:54:54;;;;;;;1.33;0.88;;;;;;;21.93;39.13;100389.06;5020293;28;20073;-52
2022/09/16 08:57:25;;;;;;;0.73;0.70;;;;;;;21.98;39.16;100402.88;5023408;28;20052;-48
2022/09/16 08:59:58;;;;;;;1.10;0.43;;;;;;;22.14;38.42;100394.28;5020353;28;20526;-55
2022/09/16 09:02:36;;;;;;;0.88;0.85;;;;;;;22.20;37.35;100392.22;5017798;28;20077;-55
2022/09/16 09:05:33;;;;;;;0.82;0.40;;;;;;;22.25;37.12;100399.91;5016516;28;20042;-55
2022/09/16 09:08:12;;;;;;;0.85;0.40;;;;;;;22.24;36.89;100406.13;5020387;28;20076;-52
2022/09/16 09:21:37;;;;;;;1.77;1.45;;;;;;;22.67;35.54;100399.78;5024848;28;20428;-52
2022/09/16 09:26:59;;;;;;;1.17;0.50;;;;;;;22.78;35.78;100394.84;5098276;27;20395;-52
2022/09/16 09:33:03;;;;;;;0.68;0.57;;;;;;;22.99;34.77;100405.28;5110729;27;20399;-49
2022/09/16 09:41:13;;;;;;;1.58;0.80;;;;;;;23.23;34.72;100402.34;5096793;27;20407;-50
2022/09/16 09:46:29;;;;;;;1.00;0.90;;;;;;;23.22;34.59;100395.34;5081952;27;20386;-50
2022/09/16 09:49:09;;;;;;;1.63;0.88;;;;;;;23.23;34.60;100397.03;5049329;28;20045;-53
2022/09/16 09:54:34;;;;;;;1.17;0.30;;;;;;;23.05;34.35;100404.97;5020527;28;20903;-53
2022/09/16 10:02:21;;;;;;;2.05;1.83;;;;;;;22.72;33.80;100403.03;5052609;28;20395;-52
2022/09/16 10:04:48;;;;;;;1.70;1.55;;;;;;;22.57;34.02;100402.88;5002657;28;20060;-49
2022/09/16 10:07:19;;;;;;;3.08;1.58;;;;;;;22.12;34.57;100401.41;5011547;28;20092;-54
2022/09/16 10:09:52;;;;;;;1.48;1.23;;;;;;;21.46;34.62;100391.06;4988220;28;20098;-48
2022/09/16 10:12:29;;;;;;;1.98;1.88;;;;;;;21.27;35.42;100396.22;5014154;28;20046;-52
2022/09/16 10:14:56;;;;;;;1.67;1.52;;;;;;;21.32;35.95;100405.66;5003582;28;20607;-49
2022/09/16 10:17:24;;;;;;;1.65;1.55;;;;;;;21.43;35.96;100388.53;5007160;28;20108;-53
2022/09/16 10:19:58;;;;;;;2.53;1.55;;;;;;;21.57;36.21;100394.09;5012573;28;20076;-50
2022/09/16 10:25:06;;;;;;;0.30;0.20;;;;;;;21.63;35.98;100392.09;5065693;28;20397;-48
2022/09/16 10:27:36;;;;;;;0.68;0.55;;;;;;;21.60;35.87;100395.72;5067931;28;20048;-53
2022/09/16 10:30:04;;;;;;;;;;;;;;;21.48;34.33;100394.47;5065666;28;20114;-49
2022/09/16 10:32:39;;;;;;;1.27;0.60;;;;;;;21.48;35.51;100399.72;5098064;28;19924;-52
2022/09/16 10:35:07;;;;;;;1.05;0.40;;;;;;;21.48;35.75;100399.72;5075333;28;20056;-51
2022/09/16 10:37:35;;;;;;;0.30;0.20;;;;;;;21.47;34.73;100402.47;5063176;28;20094;-51
2022/09/16 10:40:05;;;;;;;0.82;0.82;;;;;;;21.33;35.24;100401.25;5067155;28;20226;-51
2022/09/16 10:42:33;;;;;;;0.32;0.28;;;;;;;21.05;35.08;100403.25;5071249;28;20051;-48
2022/09/16 10:45:13;;;;;;;0.47;0.30;;;;;;;20.75;35.68;100402.69;5064212;28;20045;-53
2022/09/16 10:47:40;;;;;;;0.80;0.35;;;;;;;20.53;35.79;100407.03;5060228;28;20049;-52
2022/09/16 10:50:07;;;;;;;0.55;0.30;;;;;;;20.41;36.50;100403.09;5060530;28;20392;-51
2022/09/16 10:52:45;;;;;;;0.43;0.10;;;;;;;20.36;36.68;100404.22;5066068;28;20726;-48
2022/09/16 10:58:17;;;;;;;0.40;0.20;;;;;;;20.31;36.28;100406.13;5006582;28;20919;-52
2022/09/16 11:00:55;;;;;;;1.13;0.60;;;;;;;20.22;35.85;100400.31;4989504;28;20054;-50
2022/09/16 11:09:36;;;;;;;1.42;0.88;;;;;;;19.70;37.17;100401.28;5066419;27;20761;-49
2022/09/16 11:18:15;;;;;;;0.88;0.82;;;;;;;19.52;38.11;100395.75;5065077;27;20777;-48
2022/09/16 11:26:53;;;;;;;2.47;0.65;;;;;;;19.59;38.34;100398.16;5050442;28;21003;-49
2022/09/16 11:29:52;;;;;;;1.65;1.55;;;;;;;19.22;37.26;100406.38;5005953;28;20066;-50
2022/09/16 11:35:21;;;;;;;1.33;0.40;;;;;;;18.95;38.38;100403.72;5072861;27;20395;-50
2022/09/16 11:37:59;;;;;;;1.05;0.30;;;;;;;18.88;38.65;100404.84;5005618;28;20069;-47
2022/09/16 11:43:43;;;;;;;1.38;0.47;;;;;;;18.92;37.77;100414.34;5026610;28;20881;-48
2022/09/16 11:57:25;;;;;;;1.48;1.10;;;;;;;18.40;38.54;100417.63;5038887;28;20916;-51
2022/09/16 12:08:05;;;;;;;4.30;1.23;;;;;;;18.28;37.93;100433.72;5036560;28;20411;-49
2022/09/16 12:10:54;;;;;;;1.75;1.55;;;;;;;18.35;38.99;100438.75;4984183;28;20527;-51
2022/09/16 12:13:25;;;;;;;;;;;;;;;18.22;38.80;100434.75;4981732;28;20058;-48
2022/09/16 12:15:57;;;;;;;1.13;1.13;;;;;;;18.21;38.06;100438.28;4966270;28;19992;-56
2022/09/16 12:18:32;;;;;;;1.17;1.13;;;;;;;18.04;38.46;100430.88;4975275;28;20090;-53
2022/09/16 12:23:56;;;;;;;2.20;0.28;;;;;;;18.02;38.69;100432.66;5061537;28;20399;-49
2022/09/16 12:26:29;;;;;;;0.40;0.30;;;;;;;18.09;38.31;100449.97;5058669;28;20061;-50
2022/09/16 12:31:36;;;;;;;1.13;0.20;;;;;;;17.98;38.69;100442.38;5080276;27;21061;-52
2022/09/16 12:34:11;;;;;;;2.35;0.82;;;;;;;18.17;38.84;100439.28;5003308;28;20070;-53
2022/09/16 12:36:42;;;;;;;0.52;0.52;;;;;;;18.09;38.32;100439.50;5017730;28;20125;-49
2022/09/16 12:39:11;;;;;;;0.57;0.43;;;;;;;17.97;38.24;100440.66;5001332;28;20422;-53
2022/09/16 12:50:28;;;;;;;1.60;1.02;;;;;;;17.67;39.06;100435.34;5060108;27;20901;-48
2022/09/16 12:59:20;;;;;;;1.13;0.38;;;;;;;17.81;39.62;100440.22;5023596;28;20410;-55
2022/09/16 13:01:49;;;;;;;;;;;;;;;17.90;38.75;100442.56;5033806;28;20077;-52
2022/09/16 13:04:20;;;;;;;1.25;0.45;;;;;;;18.10;38.60;100451.69;5002155;28;20016;-54
2022/09/16 13:06:52;;;;;;;2.47;0.63;;;;;;;18.20;38.54;100447.91;5017503;28;20058;-51
2022/09/16 13:09:26;;;;;;;0.73;0.30;;;;;;;18.08;37.52;100459.59;5003419;28;20186;-52
2022/09/16 13:11:59;;;;;;;1.15;0.38;;;;;;;17.83;37.08;100447.13;4999914;28;20085;-50
2022/09/16 13:14:53;;;;;;;1.35;0.30;;;;;;;17.63;37.51;100445.03;5028277;28;20050;-52
2022/09/16 13:22:50;;;;;;;0.70;0.45;;;;;;;17.25;38.40;100445.09;5041204;28;20404;-48
2022/09/16 13:25:35;;;;;;;;;;;;;;;17.30;39.14;100445.00;5021492;28;20552;-50
2022/09/16 13:28:24;;;;;;;0.95;0.40;;;;;;;17.51;37.76;100443.59;5021474;28;19957;-49
2022/09/16 13:30:51;;;;;;;1.38;0.60;;;;;;;17.65;38.00;100451.09;5022008;28;20045;-52
2022/09/16 13:33:22;;;;;;;0.85;0.85;;;;;;;17.67;37.76;100449.28;5022473;28;20053;-50
2022/09/16 13:36:12;;;;;;;1.67;0.32;;;;;;;17.67;37.33;100444.03;5019692;28;20053;-51
2022/09/16 13:38:41;;;;;;;1.65;1.55;;;;;;;17.55;38.13;100460.94;5014863;28;22786;-52
2022/09/16 13:41:12;;;;;;;0.45;0.30;;;;;;;17.39;37.25;100457.84;5020692;28;20179;-48
2022/09/16 13:51:44;;;;;;;0.80;0.45;;;;;;;17.06;38.20;100457.78;5036987;27;20406;-55
2022/09/16 14:00:00;;;;;;;0.98;0.20;;;;;;;17.32;38.85;100453.66;5060409;27;20870;-49
2022/09/16 14:13:39;;;;;;;0.90;0.22;;;;;;;16.80;38.19;100457.44;5061363;27;20400;-53
2022/09/16 14:16:19;;;;;;;2.25;0.30;;;;;;;16.65;37.83;100463.00;5006900;28;20042;-55
2022/09/16 14:18:54;;;;;;;0.50;0.20;;;;;;;16.55;38.66;100460.56;5011939;28;20052;-54
2022/09/16 14:21:23;;;;;;;1.73;0.57;;;;;;;16.45;39.16;100462.50;5013752;28;20052;-51
2022/09/16 14:23:50;;;;;;;1.33;0.47;;;;;;;16.37;39.75;100459.19;5022805;28;20049;-52
2022/09/16 14:26:21;;;;;;;1.17;0.52;;;;;;;16.29;39.86;100462.00;5018458;28;20061;-52
2022/09/16 14:28:49;;;;;;;1.38;1.20;;;;;;;16.30;38.85;100465.44;5022111;28;20192;-55
2022/09/16 14:31:18;;;;;;;0.68;0.25;;;;;;;16.28;38.82;100464.63;5036357;28;20136;-55
2022/09/16 14:33:51;;;;;;;0.38;0.30;;;;;;;16.39;39.05;100459.16;5020815;28;20478;-50
2022/09/16 14:36:25;;;;;;;1.48;0.73;;;;;;;16.43;39.61;100446.00;5022178;28;20948;-54
2022/09/16 14:47:00;;;;;;;1.42;1.33;;;;;;;16.69;39.06;100452.41;5059425;28;20419;-51
2022/09/16 14:49:38;;;;;;;1.33;1.10;;;;;;;16.78;39.00;100460.97;5011561;28;20055;-53
2022/09/16 14:52:17;;;;;;;2.35;1.30;;;;;;;16.87;38.49;100452.91;5002720;28;20112;-49
2022/09/16 14:54:45;;;;;;;2.22;1.40;;;;;;;16.97;38.37;100453.56;5002991;28;20085;-53
2022/09/16 14:57:22;;;;;;;2.10;1.70;;;;;;;17.00;38.04;100450.03;4994102;28;20132;-52
2022/09/16 14:59:53;;;;;;;1.80;1.25;;;;;;;16.98;37.83;100459.69;5002426;28;20137;-52
2022/09/16 15:05:00;;;;;;;1.17;0.57;;;;;;;17.13;37.32;100450.63;5037882;28;20412;-48
2022/09/16 15:07:33;;;;;;;2.03;0.32;;;;;;;16.73;37.99;100470.66;4977699;28;20141;-56
2022/09/16 15:10:06;;;;;;;2.47;0.95;;;;;;;16.55;37.73;100468.41;4983561;28;20534;-55
2022/09/16 15:12:38;;;;;;;0.77;0.47;;;;;;;16.48;38.68;100465.97;4982319;28;20046;-51
2022/09/16 15:15:17;;;;;;;0.63;0.43;;;;;;;16.27;38.11;100462.88;4980146;28;20133;-53
2022/09/16 15:17:52;;;;;;;0.50;0.35;;;;;;;16.22;39.14;100483.03;4982983;28;20134;-54
2022/09/16 15:20:27;;;;;;;1.05;0.50;;;;;;;16.13;39.45;100481.44;4983639;28;20394;-55
2022/09/16 15:22:54;;;;;;;0.35;0.35;;;;;;;16.06;39.65;100483.31;4977796;28;20071;-55